Time;durP1;ratioP1;P1;durP2;ratioP2;P2;SDS_P1;SDS_P2;PMS_P1;PMS_P2;Temp;Humidity;BMP_temperature;BMP_pressure;BME280_temperature;BME280_humidity;BME280_pressure;Samples;Min_cycle;Max_cycle;Signal;HPM_P1;HPM_P2
2021/05/21 00:00:59;;;;;;;2.08;1.30;;;;;;;14.09;56.83;100620.97;4956177;28;20054;-50
2021/05/21 00:03:47;;;;;;;1.80;1.50;;;;;;;14.12;56.75;100627.78;4957481;28;20130;-51
2021/05/21 00:06:34;;;;;;;3.78;1.38;;;;;;;14.09;57.18;100614.69;4956297;28;20124;-49
2021/05/21 00:09:22;;;;;;;3.92;1.30;;;;;;;14.07;56.29;100617.75;4956190;28;20102;-48
2021/05/21 00:12:10;;;;;;;3.00;1.38;;;;;;;14.06;56.93;100614.19;4958134;28;20059;-50
2021/05/21 00:14:57;;;;;;;5.15;1.48;;;;;;;14.09;57.40;100611.97;4956456;28;20418;-50
2021/05/21 00:17:32;;;;;;;2.28;1.13;;;;;;;14.12;56.70;100603.97;4954635;29;20055;-50
2021/05/21 00:20:20;;;;;;;4.05;1.33;;;;;;;14.09;57.25;100603.75;4955813;28;20055;-49
2021/05/21 00:23:08;;;;;;;3.10;1.38;;;;;;;14.13;57.01;100588.34;4955608;28;20569;-47
2021/05/21 00:25:55;;;;;;;2.60;1.30;;;;;;;14.09;56.85;100592.78;4955810;28;20091;-49
2021/05/21 00:28:43;;;;;;;4.82;1.33;;;;;;;14.11;57.18;100574.94;4955785;29;20502;-47
2021/05/21 00:31:30;;;;;;;5.68;1.50;;;;;;;14.09;57.15;100574.41;4957154;28;20055;-50
2021/05/21 00:34:21;;;;;;;2.78;0.93;;;;;;;14.11;57.02;100571.38;4954778;28;20077;-50
2021/05/21 00:36:54;;;;;;;2.17;1.02;;;;;;;14.10;57.56;100564.28;4971052;28;20047;-50
2021/05/21 00:39:40;;;;;;;4.45;1.52;;;;;;;14.17;57.69;100572.94;4970247;28;20051;-51
2021/05/21 00:42:21;;;;;;;2.78;1.27;;;;;;;14.19;57.65;100566.06;4954742;28;20051;-49
2021/05/21 00:45:14;;;;;;;2.03;1.27;;;;;;;14.17;57.70;100548.28;4955813;28;20489;-48
2021/05/21 00:48:02;;;;;;;1.15;1.08;;;;;;;14.17;57.50;100540.06;4955250;28;20558;-49
2021/05/21 00:50:50;;;;;;;5.32;1.65;;;;;;;14.11;57.27;100541.25;4955322;29;20055;-47
2021/05/21 00:53:32;;;;;;;5.13;1.67;;;;;;;14.09;57.33;100543.47;4954343;28;20052;-48
2021/05/21 00:56:20;;;;;;;2.05;1.13;;;;;;;14.05;57.10;100533.13;4955107;28;20518;-50
2021/05/21 00:58:48;;;;;;;3.83;1.58;;;;;;;14.05;58.01;100527.63;4955593;28;20050;-50
2021/05/21 01:01:16;;;;;;;3.67;1.30;;;;;;;14.05;57.49;100532.31;4955285;28;20051;-49
2021/05/21 01:04:04;;;;;;;3.75;1.40;;;;;;;14.05;57.86;100524.91;4954006;28;20130;-49
2021/05/21 01:06:44;;;;;;;5.30;1.70;;;;;;;14.09;57.87;100516.06;4954242;29;20054;-49
2021/05/21 01:09:32;;;;;;;2.08;1.40;;;;;;;14.11;57.62;100513.84;4956147;28;20125;-50
2021/05/21 01:12:00;;;;;;;5.93;1.50;;;;;;;14.10;57.86;100506.75;4954540;28;20072;-50
2021/05/21 01:14:28;;;;;;;3.72;1.48;;;;;;;14.08;57.51;100498.81;4954913;28;20031;-50
2021/05/21 01:16:56;;;;;;;2.92;1.52;;;;;;;14.05;57.17;100505.72;4955591;28;20054;-49
2021/05/21 01:19:23;;;;;;;2.33;1.13;;;;;;;14.08;57.80;100487.88;4944456;28;20051;-49
2021/05/21 01:21:52;;;;;;;1.65;1.15;;;;;;;14.10;57.81;100485.66;4953908;28;20540;-49
2021/05/21 01:24:20;;;;;;;5.68;1.42;;;;;;;14.13;57.84;100497.94;4954929;29;20552;-48
2021/05/21 01:26:48;;;;;;;5.05;1.35;;;;;;;14.06;57.59;100501.84;4955067;28;20054;-49
2021/05/21 01:29:16;;;;;;;2.45;1.15;;;;;;;14.04;57.68;100493.13;4954320;28;20035;-48
2021/05/21 01:31:45;;;;;;;1.88;1.20;;;;;;;14.05;57.48;100497.50;4969963;28;20498;-46
2021/05/21 01:34:13;;;;;;;4.10;1.35;;;;;;;14.04;57.96;100486.81;4954617;28;20094;-46
2021/05/21 01:36:43;;;;;;;2.40;1.23;;;;;;;14.03;58.12;100480.53;4953936;29;20035;-48
2021/05/21 01:39:12;;;;;;;3.53;1.30;;;;;;;14.03;58.17;100466.84;4954559;28;20062;-47
2021/05/21 01:41:42;;;;;;;3.88;1.30;;;;;;;13.99;58.29;100468.56;4949993;29;20048;-48
2021/05/21 01:44:13;;;;;;;2.65;1.52;;;;;;;13.97;57.62;100461.75;4969069;28;20054;-48
2021/05/21 01:46:45;;;;;;;3.95;1.60;;;;;;;13.98;58.19;100445.03;4953445;28;20047;-50
2021/05/21 01:49:15;;;;;;;2.88;1.38;;;;;;;13.98;57.75;100438.75;4969367;28;20411;-51
2021/05/21 01:51:57;;;;;;;1.60;1.13;;;;;;;13.98;57.84;100445.03;4969431;28;20051;-50
2021/05/21 01:54:29;;;;;;;3.85;1.55;;;;;;;13.98;58.23;100441.47;4969252;28;20051;-49
2021/05/21 01:57:07;;;;;;;2.78;1.30;;;;;;;13.96;57.80;100439.03;4953267;29;20051;-50
2021/05/21 01:59:52;;;;;;;3.75;1.40;;;;;;;13.94;58.03;100432.22;4968954;28;20051;-48
2021/05/21 02:02:29;;;;;;;1.80;1.10;;;;;;;13.93;57.78;100428.69;4953165;28;20067;-51
2021/05/21 02:05:17;;;;;;;1.77;1.27;;;;;;;13.96;57.82;100433.53;4954352;28;20054;-46
2021/05/21 02:07:53;;;;;;;;;;;;;;;13.96;58.48;100428.06;4953539;29;20066;-49
2021/05/21 02:10:40;;;;;;;2.22;1.05;;;;;;;13.97;57.93;100434.34;4954241;28;19952;-47
2021/05/21 02:13:10;;;;;;;3.42;1.40;;;;;;;13.96;57.87;100432.75;4952395;28;20138;-48
2021/05/21 02:15:51;;;;;;;2.65;1.17;;;;;;;13.93;58.72;100420.47;4969152;28;20055;-48
2021/05/21 02:18:33;;;;;;;5.55;1.77;;;;;;;13.90;59.50;100431.19;4952924;29;20043;-48
2021/05/21 02:21:08;;;;;;;6.43;1.45;;;;;;;13.84;59.88;100441.44;4952823;29;20150;-49
2021/05/21 02:23:55;;;;;;;3.38;1.50;;;;;;;13.80;60.60;100448.59;4969273;28;20107;-49
2021/05/21 02:26:43;;;;;;;3.28;1.45;;;;;;;13.73;60.99;100459.13;4950789;29;20054;-45
2021/05/21 02:29:29;;;;;;;4.78;1.85;;;;;;;13.61;62.99;100463.16;4969306;28;20417;-49
2021/05/21 02:32:06;;;;;;;7.82;2.33;;;;;;;13.48;64.82;100458.41;4953082;28;20043;-51
2021/05/21 02:34:53;;;;;;;6.93;2.70;;;;;;;13.40;66.25;100457.16;4954074;28;20054;-53
2021/05/21 02:37:41;;;;;;;10.15;3.00;;;;;;;13.27;67.76;100448.84;4954166;28;20051;-46
2021/05/21 02:40:19;;;;;;;9.27;2.90;;;;;;;13.19;67.94;100464.81;4952505;29;20055;-51
2021/05/21 02:42:46;;;;;;;13.00;3.40;;;;;;;13.02;68.11;100480.91;4953855;28;20124;-46
2021/05/21 02:45:14;;;;;;;9.05;2.70;;;;;;;12.92;69.46;100476.38;4953852;28;20071;-48
2021/05/21 02:47:42;;;;;;;15.63;3.72;;;;;;;12.88;69.62;100455.38;4953579;28;20059;-47
2021/05/21 02:50:10;;;;;;;13.73;3.60;;;;;;;12.87;69.48;100459.19;4954078;28;20043;-47
2021/05/21 02:52:38;;;;;;;13.07;3.63;;;;;;;12.87;70.11;100442.78;4954042;28;20098;-46
2021/05/21 02:55:06;;;;;;;18.10;4.72;;;;;;;12.89;69.85;100451.50;4954072;28;20047;-46
2021/05/21 02:57:34;;;;;;;11.15;3.55;;;;;;;12.91;68.98;100449.31;4953190;28;20465;-46
2021/05/21 03:00:02;;;;;;;14.05;3.38;;;;;;;12.89;69.42;100438.69;4954197;28;20071;-50
2021/05/21 03:02:30;;;;;;;14.50;3.97;;;;;;;12.86;69.39;100446.63;4968329;28;20510;-47
2021/05/21 03:04:58;;;;;;;11.75;3.35;;;;;;;12.77;69.86;100439.09;4953687;28;20055;-47
2021/05/21 03:07:28;;;;;;;11.63;3.65;;;;;;;12.81;68.90;100433.03;4953800;28;20057;-46
2021/05/21 03:09:56;;;;;;;15.13;4.10;;;;;;;12.82;69.44;100426.44;4953612;29;20502;-50
2021/05/21 03:12:25;;;;;;;13.57;3.50;;;;;;;12.83;69.50;100428.09;4953911;28;20047;-51
2021/05/21 03:14:54;;;;;;;11.48;3.28;;;;;;;12.86;69.22;100424.75;4953720;28;20043;-50
2021/05/21 03:17:23;;;;;;;13.80;3.88;;;;;;;12.89;68.85;100419.53;4953840;28;20047;-49
2021/05/21 03:19:53;;;;;;;12.60;3.38;;;;;;;12.94;68.63;100415.91;4968272;28;20044;-48
2021/05/21 03:22:21;;;;;;;13.00;3.65;;;;;;;12.93;68.71;100419.75;4953805;28;20047;-47
2021/05/21 03:24:50;;;;;;;12.00;3.60;;;;;;;12.94;68.33;100410.44;4952072;28;20047;-49
2021/05/21 03:27:22;;;;;;;13.40;3.97;;;;;;;12.96;68.89;100408.22;4955340;28;20102;-51
2021/05/21 03:29:54;;;;;;;10.55;3.10;;;;;;;12.96;68.37;100403.59;4955877;28;20047;-49
2021/05/21 03:32:29;;;;;;;12.98;3.10;;;;;;;13.00;68.44;100387.38;4955853;28;20422;-50
2021/05/21 03:34:58;;;;;;;13.55;3.80;;;;;;;13.01;67.95;100383.53;4971950;28;20047;-50
2021/05/21 03:37:38;;;;;;;10.55;3.17;;;;;;;12.99;68.00;100381.09;4955931;29;20498;-48
2021/05/21 03:40:19;;;;;;;9.45;2.92;;;;;;;12.96;67.68;100378.97;4955100;29;20051;-49
2021/05/21 03:42:58;;;;;;;16.65;3.70;;;;;;;12.94;67.72;100372.16;4955821;28;20514;-49
2021/05/21 03:45:44;;;;;;;7.68;2.72;;;;;;;12.95;67.84;100360.13;4971727;28;20062;-50
2021/05/21 03:48:33;;;;;;;9.25;2.95;;;;;;;12.95;68.02;100371.84;4957881;28;20048;-46
2021/05/21 03:51:20;;;;;;;10.10;2.92;;;;;;;12.94;68.17;100372.16;4956581;28;20110;-50
2021/05/21 03:53:55;;;;;;;13.20;3.42;;;;;;;12.93;68.32;100374.06;4954944;29;20170;-51
2021/05/21 03:56:32;;;;;;;10.55;3.35;;;;;;;12.92;68.18;100364.25;4971567;28;20399;-48
2021/05/21 03:59:12;;;;;;;12.63;3.38;;;;;;;12.91;67.61;100368.06;4955391;29;20051;-51
2021/05/21 04:01:59;;;;;;;11.43;3.60;;;;;;;12.91;68.13;100370.81;4955596;29;20051;-49
2021/05/21 04:04:46;;;;;;;14.38;3.55;;;;;;;12.90;68.14;100369.19;4956468;28;20059;-48
2021/05/21 04:07:27;;;;;;;11.20;3.53;;;;;;;12.90;68.62;100368.41;4955040;28;20061;-49
2021/05/21 04:09:55;;;;;;;9.32;2.97;;;;;;;12.90;67.79;100357.47;4955874;28;20121;-50
2021/05/21 04:12:25;;;;;;;10.90;3.45;;;;;;;12.89;67.76;100358.53;4956734;28;20051;-49
2021/05/21 04:14:55;;;;;;;12.43;3.13;;;;;;;12.88;67.81;100356.94;4956560;28;20122;-50
2021/05/21 04:17:23;;;;;;;11.85;3.70;;;;;;;12.85;68.23;100358.34;4956408;28;20160;-47
2021/05/21 04:19:50;;;;;;;11.77;3.40;;;;;;;12.87;67.92;100347.09;4955993;28;20581;-49
2021/05/21 04:22:18;;;;;;;10.73;3.38;;;;;;;12.85;67.92;100343.88;4956083;28;20621;-50
2021/05/21 04:24:47;;;;;;;10.13;2.80;;;;;;;12.85;67.37;100352.88;4955709;28;20127;-49
2021/05/21 04:27:14;;;;;;;13.88;3.38;;;;;;;12.86;68.03;100359.16;4956147;28;20043;-50
2021/05/21 04:29:43;;;;;;;10.73;3.42;;;;;;;12.85;67.50;100352.88;4956086;28;20047;-48
2021/05/21 04:32:11;;;;;;;10.85;3.13;;;;;;;12.89;67.60;100355.81;4956023;28;20113;-49
2021/05/21 04:34:41;;;;;;;12.93;3.25;;;;;;;12.89;67.26;100359.38;4954635;29;20055;-48
2021/05/21 04:37:09;;;;;;;13.40;3.45;;;;;;;12.88;67.83;100356.94;4955752;28;20039;-48
2021/05/21 04:39:39;;;;;;;11.52;3.65;;;;;;;12.86;67.31;100342.75;4954178;28;20750;-49
2021/05/21 04:42:09;;;;;;;14.88;3.78;;;;;;;12.85;66.20;100343.88;4954365;29;20052;-49
2021/05/21 04:44:41;;;;;;;12.55;3.40;;;;;;;12.84;66.08;100347.69;4970650;28;20509;-50
2021/05/21 04:47:10;;;;;;;9.48;3.00;;;;;;;12.84;65.66;100351.22;4970546;28;20051;-49
2021/05/21 04:49:39;;;;;;;14.07;3.70;;;;;;;12.86;65.41;100353.69;4970412;28;20537;-49
2021/05/21 04:52:18;;;;;;;12.90;3.75;;;;;;;12.89;65.42;100350.34;4950856;28;20095;-47
2021/05/21 04:54:55;;;;;;;12.30;3.13;;;;;;;12.89;65.10;100342.13;4970536;28;20110;-50
2021/05/21 04:57:31;;;;;;;;;;;;;;;12.90;64.33;100338.31;4970747;28;20161;-49
2021/05/21 05:00:17;;;;;;;13.57;3.30;;;;;;;12.88;64.47;100329.59;4970451;28;19922;-49
2021/05/21 05:02:52;;;;;;;13.02;3.28;;;;;;;12.96;63.68;100327.00;4953983;28;20055;-50
2021/05/21 05:05:35;;;;;;;7.10;2.20;;;;;;;12.95;61.80;100321.81;4953956;29;20055;-48
2021/05/21 05:08:16;;;;;;;11.10;3.10;;;;;;;12.89;60.23;100323.00;4969498;28;20047;-49
2021/05/21 05:11:04;;;;;;;12.10;3.55;;;;;;;12.79;58.49;100322.06;4954854;28;20050;-49
2021/05/21 05:13:44;;;;;;;15.18;4.00;;;;;;;12.78;59.37;100314.94;4953748;29;20057;-50
2021/05/21 05:16:23;;;;;;;11.65;3.30;;;;;;;12.78;59.64;100323.16;4953974;29;20419;-51
2021/05/21 05:19:00;;;;;;;15.50;3.78;;;;;;;12.84;59.11;100323.06;4964560;28;20147;-49
2021/05/21 05:21:48;;;;;;;12.80;3.33;;;;;;;12.80;58.31;100322.88;4946797;29;20058;-51
2021/05/21 05:24:28;;;;;;;13.05;3.65;;;;;;;12.87;58.57;100326.06;4953627;29;20417;-47
2021/05/21 05:27:07;;;;;;;15.75;4.50;;;;;;;12.85;56.83;100322.00;4955004;28;20043;-50
2021/05/21 05:29:52;;;;;;;9.70;3.20;;;;;;;12.85;57.74;100313.78;4969700;28;20059;-49
2021/05/21 05:32:22;;;;;;;13.70;3.75;;;;;;;12.83;57.51;100321.47;4950849;28;20040;-49
2021/05/21 05:34:58;;;;;;;15.20;3.70;;;;;;;12.82;56.22;100314.34;4947139;29;20061;-51
2021/05/21 05:37:29;;;;;;;11.57;3.53;;;;;;;12.82;56.68;100303.41;4957419;28;20036;-52
2021/05/21 05:39:56;;;;;;;11.13;3.63;;;;;;;12.87;56.65;100300.59;4957828;28;20063;-54
2021/05/21 05:42:24;;;;;;;17.83;4.32;;;;;;;12.84;56.02;100301.19;4958339;28;20047;-54
2021/05/21 05:44:52;;;;;;;14.15;3.70;;;;;;;12.83;56.91;100294.13;4955490;28;20498;-53
2021/05/21 05:47:20;;;;;;;16.08;3.50;;;;;;;12.82;55.98;100296.06;4955612;28;20083;-51
2021/05/21 05:49:48;;;;;;;16.33;4.50;;;;;;;12.81;55.99;100285.41;4954023;28;20078;-52
2021/05/21 05:52:16;;;;;;;15.43;3.42;;;;;;;12.84;55.97;100284.81;4954481;28;20047;-49
2021/05/21 05:54:44;;;;;;;15.90;3.90;;;;;;;12.96;56.44;100293.38;4954543;28;20054;-49
2021/05/21 05:57:13;;;;;;;8.82;2.63;;;;;;;13.02;57.98;100292.19;4954229;28;20454;-50
2021/05/21 05:59:42;;;;;;;11.05;2.90;;;;;;;12.99;59.05;100296.34;4953291;28;20053;-49
2021/05/21 06:02:11;;;;;;;9.90;3.10;;;;;;;12.99;59.24;100292.78;4954372;28;20036;-52
2021/05/21 06:04:41;;;;;;;13.82;3.92;;;;;;;12.95;55.22;100298.03;4952308;29;20138;-50
2021/05/21 06:07:11;;;;;;;15.50;3.80;;;;;;;12.91;55.61;100296.19;4969024;28;20053;-49
2021/05/21 06:09:39;;;;;;;19.15;4.88;;;;;;;12.87;55.56;100290.50;4953889;28;20051;-52
2021/05/21 06:12:10;;;;;;;16.42;4.40;;;;;;;12.93;55.16;100289.31;4953035;28;20055;-54
2021/05/21 06:14:41;;;;;;;16.02;4.05;;;;;;;12.92;54.99;100281.41;4952692;29;20099;-54
2021/05/21 06:17:17;;;;;;;14.20;3.85;;;;;;;12.89;54.98;100271.88;4953137;28;20140;-51
2021/05/21 06:19:57;;;;;;;15.95;3.92;;;;;;;12.85;54.36;100275.50;4951814;28;20414;-50
2021/05/21 06:22:30;;;;;;;14.75;4.22;;;;;;;12.84;54.97;100262.94;4952554;28;20047;-51
2021/05/21 06:25:06;;;;;;;16.67;4.22;;;;;;;12.87;53.59;100265.06;4968836;28;20075;-51
2021/05/21 06:27:38;;;;;;;14.35;4.05;;;;;;;12.87;53.30;100259.59;4952675;28;20478;-51
2021/05/21 06:30:17;;;;;;;14.48;4.30;;;;;;;12.86;52.77;100277.13;4968327;28;20066;-50
2021/05/21 06:32:55;;;;;;;21.77;4.75;;;;;;;12.92;53.09;100259.53;4952337;28;20043;-51
2021/05/21 06:35:43;;;;;;;23.33;5.47;;;;;;;12.95;54.37;100267.94;4952954;28;20083;-51
2021/05/21 06:38:25;;;;;;;12.60;3.75;;;;;;;13.14;58.96;100256.97;4961706;28;20047;-52
2021/05/21 06:41:13;;;;;;;20.40;4.80;;;;;;;13.18;54.80;100257.19;4949374;29;20067;-55
2021/05/21 06:43:49;;;;;;;15.07;4.72;;;;;;;13.14;54.63;100259.72;4952417;28;20047;-50
2021/05/21 06:46:23;;;;;;;19.27;5.15;;;;;;;13.20;58.25;100252.22;4961267;28;20490;-51
2021/05/21 06:49:01;;;;;;;16.50;4.60;;;;;;;13.32;59.91;100257.25;4951777;29;20664;-51
2021/05/21 06:51:48;;;;;;;23.13;5.93;;;;;;;13.40;59.45;100262.06;4952805;28;20054;-51
2021/05/21 06:54:37;;;;;;;18.63;4.80;;;;;;;13.62;63.20;100273.13;4947419;29;20040;-51
2021/05/21 06:57:05;;;;;;;17.85;3.88;;;;;;;13.67;58.75;100276.91;4952579;28;20048;-51
2021/05/21 06:59:33;;;;;;;13.30;3.80;;;;;;;13.61;62.59;100274.25;4953449;28;20039;-50
2021/05/21 07:02:00;;;;;;;16.77;4.53;;;;;;;13.65;61.82;100271.72;4956182;28;20042;-50
2021/05/21 07:04:28;;;;;;;21.15;4.65;;;;;;;13.53;62.02;100280.41;4957293;28;20065;-51
2021/05/21 07:06:57;;;;;;;17.05;4.25;;;;;;;13.43;62.50;100283.34;4957358;28;20039;-50
2021/05/21 07:09:24;;;;;;;17.55;3.80;;;;;;;13.25;62.74;100275.94;4957265;28;20047;-51
2021/05/21 07:11:56;;;;;;;19.35;4.55;;;;;;;13.17;64.43;100281.00;4957251;28;20066;-50
2021/05/21 07:14:25;;;;;;;13.93;3.72;;;;;;;13.36;65.02;100275.50;4957093;28;20035;-50
2021/05/21 07:16:56;;;;;;;14.77;3.90;;;;;;;13.66;63.99;100281.53;4957056;28;20525;-49
2021/05/21 07:19:23;;;;;;;14.55;3.85;;;;;;;13.53;64.69;100280.41;4957370;28;20130;-51
2021/05/21 07:22:07;;;;;;;12.45;3.47;;;;;;;13.66;64.42;100284.28;4964627;28;20528;-51
2021/05/21 07:24:35;;;;;;;11.48;3.35;;;;;;;13.60;64.96;100285.50;4957143;28;20047;-50
2021/05/21 07:27:06;;;;;;;17.23;4.57;;;;;;;13.75;64.73;100287.16;4948438;28;20102;-51
2021/05/21 07:29:35;;;;;;;13.43;3.75;;;;;;;13.81;64.00;100269.53;4957151;28;20050;-50
2021/05/21 07:32:04;;;;;;;11.65;3.13;;;;;;;13.86;64.04;100272.16;4956682;28;20172;-50
2021/05/21 07:34:43;;;;;;;11.10;3.42;;;;;;;13.68;63.09;100275.78;4955746;29;20059;-50
2021/05/21 07:37:17;;;;;;;13.85;4.38;;;;;;;13.71;65.01;100269.69;4956796;28;20494;-50
2021/05/21 07:39:46;;;;;;;14.05;4.32;;;;;;;13.45;62.45;100264.69;4956611;28;20111;-51
2021/05/21 07:42:23;;;;;;;13.57;3.85;;;;;;;13.40;63.46;100264.78;4971552;28;20043;-51
2021/05/21 07:45:00;;;;;;;14.18;4.00;;;;;;;13.57;62.92;100259.56;4955678;28;20051;-52
2021/05/21 07:47:29;;;;;;;12.35;3.55;;;;;;;13.43;59.03;100264.19;4955120;29;20043;-49
2021/05/21 07:50:14;;;;;;;14.57;4.43;;;;;;;13.41;60.89;100256.25;4957453;28;20145;-50
2021/05/21 07:52:51;;;;;;;15.02;3.85;;;;;;;13.33;57.79;100265.19;4971638;28;20470;-52
2021/05/21 07:55:33;;;;;;;15.68;4.57;;;;;;;13.39;59.66;100257.69;4955274;28;20528;-49
2021/05/21 07:58:02;;;;;;;13.40;3.60;;;;;;;13.48;57.89;100252.34;4956698;28;20046;-50
2021/05/21 08:00:32;;;;;;;13.32;3.70;;;;;;;13.44;55.81;100257.59;4954898;28;20043;-51
2021/05/21 08:03:18;;;;;;;15.95;4.40;;;;;;;13.50;57.78;100259.13;4971422;28;20422;-53
2021/05/21 08:06:04;;;;;;;14.85;4.07;;;;;;;13.43;56.78;100258.72;4954994;28;20081;-50
2021/05/21 08:08:51;;;;;;;17.42;3.67;;;;;;;13.44;55.24;100254.84;4956776;28;20040;-52
2021/05/21 08:11:24;;;;;;;15.40;3.80;;;;;;;13.46;55.47;100240.88;4955074;28;20129;-53
2021/05/21 08:14:12;;;;;;;16.52;4.18;;;;;;;13.58;54.66;100242.00;4957593;28;20503;-50
2021/05/21 08:16:58;;;;;;;14.35;4.43;;;;;;;13.50;53.16;100247.38;4955125;28;20577;-54
2021/05/21 08:20:03;;;;;;;16.52;4.05;;;;;;;13.59;54.96;100246.38;4955917;29;20059;-55
2021/05/21 08:22:34;;;;;;;17.55;5.03;;;;;;;13.82;56.56;100249.22;4955082;29;20216;-50
2021/05/21 08:25:23;;;;;;;15.32;3.60;;;;;;;13.79;53.82;100244.38;4958053;28;20043;-52
2021/05/21 08:27:53;;;;;;;15.10;3.40;;;;;;;14.01;61.03;100236.22;4970391;28;20058;-54
2021/05/21 08:30:22;;;;;;;12.18;3.40;;;;;;;13.96;51.97;100238.28;4955609;28;20115;-50
2021/05/21 08:32:50;;;;;;;15.45;4.25;;;;;;;13.81;50.71;100240.19;4956045;28;20130;-53
2021/05/21 08:35:18;;;;;;;13.57;4.05;;;;;;;13.81;51.22;100248.41;4955929;28;20075;-53
2021/05/21 08:37:48;;;;;;;15.63;3.78;;;;;;;13.84;53.12;100239.59;4955995;28;20047;-52
2021/05/21 08:40:50;;;;;;;11.85;3.60;;;;;;;14.06;58.61;100240.81;4955429;28;20062;-51
2021/05/21 08:43:12;;;;;;;18.27;4.40;;;;;;;14.12;53.06;100242.31;4955616;28;20055;-50
2021/05/21 08:45:40;;;;;;;10.82;3.88;;;;;;;14.47;53.82;100270.88;4955322;28;20039;-48
2021/05/21 08:48:17;;;;;;;12.45;3.60;;;;;;;14.25;51.97;100254.38;4955808;28;20055;-50
2021/05/21 08:50:47;;;;;;;11.52;3.40;;;;;;;14.14;52.51;100272.97;4955464;28;20122;-48
2021/05/21 08:53:17;;;;;;;12.35;3.75;;;;;;;14.27;54.86;100268.59;4955841;28;20161;-53
2021/05/21 08:55:46;;;;;;;16.52;3.90;;;;;;;14.12;53.13;100271.63;4955629;28;20048;-50
2021/05/21 08:58:21;;;;;;;12.50;3.63;;;;;;;13.89;52.83;100271.53;4954129;28;20145;-49
2021/05/21 09:00:52;;;;;;;12.85;3.58;;;;;;;14.10;54.74;100271.97;4954127;28;20051;-50
2021/05/21 09:03:26;;;;;;;10.57;3.47;;;;;;;13.90;53.97;100264.94;4950748;28;20075;-51
2021/05/21 09:06:03;;;;;;;11.18;3.83;;;;;;;13.87;54.88;100262.81;4969983;28;20145;-48
2021/05/21 09:08:40;;;;;;;13.40;3.72;;;;;;;14.16;57.71;100267.16;4970263;28;20461;-50
2021/05/21 09:11:25;;;;;;;7.70;2.80;;;;;;;14.58;63.00;100248.78;4939426;29;20528;-50
2021/05/21 09:14:16;;;;;;;17.15;3.92;;;;;;;14.54;54.19;100242.28;4969499;28;20051;-47
2021/05/21 09:16:49;;;;;;;12.98;3.67;;;;;;;14.45;54.46;100247.63;4954020;29;20054;-50
2021/05/21 09:19:36;;;;;;;13.00;3.80;;;;;;;14.32;56.64;100253.97;4954143;28;20163;-50
2021/05/21 09:22:13;;;;;;;10.98;3.33;;;;;;;14.87;58.97;100254.66;4953822;28;20418;-50
2021/05/21 09:25:01;;;;;;;17.70;4.35;;;;;;;14.65;53.61;100243.69;4954447;28;20047;-49
2021/05/21 09:27:49;;;;;;;18.65;4.93;;;;;;;14.53;52.89;100246.94;4954852;28;20043;-47
2021/05/21 09:30:37;;;;;;;14.80;3.75;;;;;;;14.45;58.69;100233.94;4954530;28;20063;-50
2021/05/21 09:33:34;;;;;;;17.17;4.90;;;;;;;14.39;52.09;100244.22;4953814;29;20530;-50
2021/05/21 09:36:29;;;;;;;12.15;3.15;;;;;;;14.40;56.75;100254.03;4954451;28;20136;-50
2021/05/21 09:39:17;;;;;;;14.38;4.05;;;;;;;14.34;49.05;100240.78;4954332;28;20059;-51
2021/05/21 09:42:09;;;;;;;14.30;3.60;;;;;;;14.36;49.82;100247.56;4953842;28;20055;-49
2021/05/21 09:45:17;;;;;;;12.70;3.70;;;;;;;14.48;49.67;100225.91;4954169;28;20422;-49
2021/05/21 09:48:02;;;;;;;9.85;3.25;;;;;;;14.44;49.96;100237.81;4942467;29;20510;-51
2021/05/21 09:50:51;;;;;;;12.43;3.60;;;;;;;14.38;51.49;100228.06;4953960;29;20035;-49
2021/05/21 09:53:25;;;;;;;13.35;3.75;;;;;;;14.38;48.98;100234.38;4953522;29;20051;-50
2021/05/21 09:56:20;;;;;;;11.45;3.65;;;;;;;14.26;49.15;100231.31;4950805;29;20788;-50
2021/05/21 09:59:11;;;;;;;16.95;3.85;;;;;;;14.26;48.80;100237.66;4954269;28;20071;-52
2021/05/21 10:01:58;;;;;;;23.95;4.20;;;;;;;14.57;48.87;100236.16;4933921;29;20047;-48
2021/05/21 10:04:46;;;;;;;16.02;3.53;;;;;;;14.58;52.27;100215.88;4941928;28;20514;-49
2021/05/21 10:07:34;;;;;;;14.02;4.03;;;;;;;14.64;47.43;100222.84;4953947;29;20181;-48
2021/05/21 10:10:24;;;;;;;6.60;2.20;;;;;;;14.86;57.13;100206.41;4954392;28;20051;-50
2021/05/21 10:12:52;;;;;;;11.25;3.55;;;;;;;14.77;45.64;100212.94;4953355;28;20127;-49
2021/05/21 10:15:20;;;;;;;16.45;4.47;;;;;;;14.58;46.92;100218.63;4954441;28;20047;-50
2021/05/21 10:17:48;;;;;;;18.42;4.13;;;;;;;14.42;46.76;100213.44;4954323;28;20554;-50
2021/05/21 10:20:18;;;;;;;13.55;4.10;;;;;;;14.44;46.40;100213.13;4954096;28;20050;-49
2021/05/21 10:22:47;;;;;;;15.60;4.45;;;;;;;14.43;47.78;100212.34;4937160;29;20047;-49
2021/05/21 10:25:26;;;;;;;14.40;6.03;;;;;;;14.42;48.20;100213.44;4952632;28;20046;-50
2021/05/21 10:27:57;;;;;;;49.10;28.25;;;;;;;14.69;50.31;100211.75;4968594;28;20061;-47
2021/05/21 10:30:26;;;;;;;16.90;4.85;;;;;;;14.85;47.57;100221.25;4954007;29;20110;-49
2021/05/21 10:33:29;;;;;;;67.53;34.70;;;;;;;14.91;48.69;100206.28;4937232;29;20054;-51
2021/05/21 10:36:15;;;;;;;37.78;14.43;;;;;;;15.02;47.23;100208.78;4953543;28;20482;-53
2021/05/21 10:39:10;;;;;;;120.43;60.05;;;;;;;15.11;54.37;100206.91;4968566;28;20638;-50
2021/05/21 10:42:00;;;;;;;117.97;56.63;;;;;;;15.48;54.90;100199.34;4279236;28;10000602;-50
2021/05/21 10:44:43;;;;;;;108.93;46.83;;;;;;;15.72;53.39;100205.28;4950541;29;20062;-55
2021/05/21 10:47:25;;;;;;;57.63;25.20;;;;;;;15.50;48.20;100214.38;4935496;29;20051;-53
2021/05/21 10:50:19;;;;;;;26.13;10.77;;;;;;;15.15;53.58;100196.09;4950224;28;20194;-48
2021/05/21 10:52:59;;;;;;;68.30;32.00;;;;;;;15.11;54.59;100190.44;4966000;28;20510;-50
2021/05/21 10:55:54;;;;;;;29.27;13.05;;;;;;;15.10;45.37;100194.28;4952713;28;20140;-51
2021/05/21 10:58:53;;;;;;;40.95;18.33;;;;;;;15.05;52.10;100176.00;4950421;28;20146;-50
2021/05/21 11:01:48;;;;;;;48.25;22.45;;;;;;;15.13;48.31;100179.97;4940752;29;20114;-51
2021/05/21 11:04:51;;;;;;;41.63;19.00;;;;;;;15.46;51.65;100179.63;4950229;28;20485;-53
2021/05/21 11:07:44;;;;;;;79.68;32.97;;;;;;;15.81;56.54;100180.59;4950177;29;20062;-51
2021/05/21 11:10:35;;;;;;;46.67;20.55;;;;;;;15.75;46.18;100185.44;4950666;28;20152;-51
2021/05/21 11:13:26;;;;;;;35.25;13.55;;;;;;;15.39;46.96;100188.31;4951067;29;20086;-51
2021/05/21 11:16:14;;;;;;;19.85;7.93;;;;;;;15.18;48.65;100212.75;4952576;28;20055;-50
2021/05/21 11:18:53;;;;;;;15.45;4.80;;;;;;;15.21;51.60;100253.28;4950378;28;20062;-49
2021/05/21 11:21:41;;;;;;;10.60;3.33;;;;;;;14.56;57.13;100259.22;4949786;29;20479;-49
2021/05/21 11:24:38;;;;;;;15.35;3.63;;;;;;;14.06;59.86;100270.94;4952340;28;20051;-50
2021/05/21 11:27:18;;;;;;;15.90;4.15;;;;;;;13.80;60.95;100256.94;4951709;28;20066;-50
2021/05/21 11:30:11;;;;;;;10.63;3.53;;;;;;;13.66;62.55;100245.97;4950531;28;20059;-50
2021/05/21 11:32:55;;;;;;;19.83;6.63;;;;;;;13.76;63.17;100231.28;4950233;29;20059;-50
2021/05/21 11:35:43;;;;;;;14.25;4.03;;;;;;;13.80;63.68;100235.03;4952926;28;20059;-53
2021/05/21 11:38:30;;;;;;;21.95;7.13;;;;;;;13.86;63.28;100233.81;4949262;28;20088;-51
2021/05/21 11:41:27;;;;;;;19.02;6.72;;;;;;;13.93;62.26;100223.25;4952305;28;20470;-50
2021/05/21 11:44:15;;;;;;;13.88;3.70;;;;;;;14.04;61.77;100218.38;4950602;29;20048;-51
2021/05/21 11:47:04;;;;;;;14.80;3.78;;;;;;;14.14;61.45;100214.59;4951557;28;20063;-52
2021/05/21 11:49:53;;;;;;;20.02;5.88;;;;;;;14.26;61.34;100204.75;4956432;28;20082;-51
2021/05/21 11:52:46;;;;;;;32.45;14.23;;;;;;;14.36;61.01;100198.25;4955284;28;20153;-52
2021/05/21 11:55:33;;;;;;;15.52;4.50;;;;;;;14.43;59.82;100195.88;4955019;28;20063;-51
2021/05/21 11:58:30;;;;;;;23.48;7.68;;;;;;;14.53;56.75;100175.66;4956417;28;20063;-52
2021/05/21 12:01:17;;;;;;;24.02;10.70;;;;;;;14.75;57.75;100177.63;4953899;29;20483;-49
2021/05/21 12:04:07;;;;;;;47.88;19.27;;;;;;;15.07;55.68;100167.47;4953102;29;20126;-49
2021/05/21 12:06:54;;;;;;;18.65;5.97;;;;;;;15.34;52.84;100164.56;4951812;29;20061;-50
2021/05/21 12:09:52;;;;;;;22.88;7.80;;;;;;;15.29;50.80;100163.88;4954426;29;20047;-50